createdAt,value
2022-12-05T00:01:44.975Z,101640.31
2022-12-05T00:04:47.676Z,101639.44
2022-12-05T00:07:50.717Z,101637.94
2022-12-05T00:10:53.403Z,101632.66
2022-12-05T00:13:59.107Z,101632.47
2022-12-05T00:17:01.874Z,101626.38
2022-12-05T00:20:05.658Z,101626.53
2022-12-05T00:23:08.290Z,101622.00
2022-12-05T00:26:11.602Z,101616.94
2022-12-05T00:29:15.614Z,101616.75
2022-12-05T00:32:18.339Z,101613.22
2022-12-05T00:35:21.040Z,101608.16
2022-12-05T00:38:23.668Z,101607.09
2022-12-05T00:41:28.527Z,101594.09
2022-12-05T00:44:33.045Z,101607.44
2022-12-05T00:47:36.685Z,101604.59
2022-12-05T00:50:39.453Z,101606.47
2022-12-05T00:53:43.045Z,101604.72
2022-12-05T00:56:46.511Z,101603.69
2022-12-05T00:59:50.649Z,101601.81
2022-12-05T01:02:53.276Z,101602.81
2022-12-05T01:05:55.930Z,101608.06
2022-12-05T01:08:59.041Z,101611.59
2022-12-05T01:12:01.714Z,101602.63
2022-12-05T01:15:06.561Z,101597.22
2022-12-05T01:18:09.193Z,101598.16
2022-12-05T01:21:11.849Z,101599.97
2022-12-05T01:24:15.565Z,101599.28
2022-12-05T01:27:18.173Z,101600.75
2022-12-05T01:30:22.337Z,101591.38
2022-12-05T01:33:25.170Z,101599.41
2022-12-05T01:36:29.152Z,101599.47
2022-12-05T01:39:31.789Z,101597.34
2022-12-05T01:42:34.535Z,101592.16
2022-12-05T01:45:41.551Z,101600.13
2022-12-05T01:48:44.514Z,101593.97
2022-12-05T01:51:51.089Z,101597.28
2022-12-05T01:54:57.469Z,101599.16
2022-12-05T01:58:01.752Z,101592.91
2022-12-05T02:01:05.967Z,101591.81
2022-12-05T02:04:10.072Z,101587.91
2022-12-05T02:07:12.800Z,101589.41
2022-12-05T02:10:16.249Z,101577.94
2022-12-05T02:13:35.457Z,101582.16
2022-12-05T02:16:48.674Z,101580.38
2022-12-05T02:20:05.668Z,101579.47
2022-12-05T02:23:34.640Z,101571.56
2022-12-05T02:26:54.188Z,101566.16
2022-12-05T02:30:10.563Z,101561.22
2022-12-05T02:33:22.106Z,101558.69
2022-12-05T02:36:33.878Z,101557.63
2022-12-05T02:39:46.347Z,101558.38
2022-12-05T02:42:54.317Z,101563.56
2022-12-05T02:46:01.813Z,101559.19
2022-12-05T02:49:09.429Z,101553.88
2022-12-05T02:52:16.196Z,101553.31
2022-12-05T02:55:20.950Z,101549.78
2022-12-05T02:58:27.863Z,101551.06
2022-12-05T03:01:33.509Z,101552.41
2022-12-05T03:04:36.786Z,101538.31
2022-12-05T03:07:42.280Z,101539.47
2022-12-05T03:10:48.474Z,101537.47
2022-12-05T03:13:54.885Z,101537.59
2022-12-05T03:17:03.146Z,101537.31
2022-12-05T03:20:10.222Z,101539.91
2022-12-05T03:23:16.587Z,101535.59
2022-12-05T03:26:33.130Z,101541.59
2022-12-05T03:29:40.033Z,101554.00
2022-12-05T03:32:50.528Z,101549.50
2022-12-05T03:36:03.045Z,101556.50
2022-12-05T03:39:12.462Z,101550.34
2022-12-05T03:42:18.480Z,101554.69
2022-12-05T03:45:28.901Z,101557.38
2022-12-05T03:48:39.468Z,101553.84
2022-12-05T03:51:47.033Z,101545.94
2022-12-05T03:54:54.528Z,101546.09
2022-12-05T03:58:02.045Z,101542.56
2022-12-05T04:01:07.968Z,101543.47
2022-12-05T04:04:18.197Z,101542.69
2022-12-05T04:07:22.672Z,101538.44
2022-12-05T04:10:29.588Z,101546.00
2022-12-05T04:13:35.836Z,101545.94
2022-12-05T04:17:02.182Z,101543.25
2022-12-05T04:20:28.946Z,101544.16
2022-12-05T04:23:31.980Z,101552.97
2022-12-05T04:26:35.291Z,101551.22
2022-12-05T04:29:44.352Z,101552.06
2022-12-05T04:32:51.366Z,101553.03
2022-12-05T04:35:59.069Z,101559.19
2022-12-05T04:39:05.507Z,101552.06
2022-12-05T04:42:11.638Z,101548.72
2022-12-05T04:45:18.776Z,101541.56
2022-12-05T04:48:26.279Z,101540.00
2022-12-05T04:51:35.235Z,101536.34
2022-12-05T04:54:42.599Z,101537.19
2022-12-05T04:57:54.085Z,101537.16
2022-12-05T05:01:03.534Z,101543.28
2022-12-05T05:04:13.025Z,101539.25
2022-12-05T05:07:17.014Z,101542.56
2022-12-05T05:10:27.905Z,101539.16
2022-12-05T05:13:30.554Z,101544.38
2022-12-05T05:16:36.022Z,101544.31
2022-12-05T05:19:38.670Z,101543.63
2022-12-05T05:22:42.648Z,101536.56
2022-12-05T05:25:45.356Z,101543.50
2022-12-05T05:28:49.165Z,101547.03
2022-12-05T05:31:51.812Z,101532.25
2022-12-05T05:34:54.437Z,101545.34
2022-12-05T05:37:58.656Z,101543.78
2022-12-05T05:41:01.309Z,101541.97
2022-12-05T05:44:05.355Z,101535.66
2022-12-05T05:47:08.171Z,101530.88
2022-12-05T05:50:16.324Z,101534.41
2022-12-05T05:53:23.590Z,101537.84
2022-12-05T05:56:26.933Z,101544.00
2022-12-05T05:59:30.099Z,101548.16
2022-12-05T06:02:34.532Z,101549.84
2022-12-05T06:05:37.313Z,101549.03
2022-12-05T06:08:43.428Z,101541.91
2022-12-05T06:11:46.040Z,101547.38
2022-12-05T06:14:48.871Z,101548.31
2022-12-05T06:17:51.544Z,101542.94
2022-12-05T06:20:55.006Z,101544.78
2022-12-05T06:23:58.984Z,101547.31
2022-12-05T06:27:01.626Z,101553.75
2022-12-05T06:30:04.969Z,101552.59
2022-12-05T06:33:07.597Z,101562.25
2022-12-05T06:36:13.021Z,101560.41
2022-12-05T06:39:16.993Z,101565.25
2022-12-05T06:42:19.611Z,101563.34
2022-12-05T06:45:22.338Z,101557.44
2022-12-05T06:48:25.021Z,101568.59
2022-12-05T06:51:27.627Z,101568.66
2022-12-05T06:54:31.670Z,101568.88
2022-12-05T06:57:34.288Z,101569.47
2022-12-05T07:00:54.658Z,101576.44
2022-12-05T07:03:57.346Z,101578.22
2022-12-05T07:07:01.984Z,101572.09
2022-12-05T07:10:07.693Z,101574.72
2022-12-05T07:13:14.442Z,101571.72
2022-12-05T07:16:18.462Z,101572.56
2022-12-05T07:19:21.126Z,101569.59
2022-12-05T07:22:25.001Z,101570.72
2022-12-05T07:25:28.965Z,101563.56
2022-12-05T07:28:31.627Z,101571.69
2022-12-05T07:31:36.524Z,101563.66
2022-12-05T07:34:39.739Z,101573.13
2022-12-05T07:37:42.460Z,101572.19
2022-12-05T07:40:46.458Z,101573.13
2022-12-05T07:43:49.208Z,101573.13
2022-12-05T07:46:51.860Z,101569.69
2022-12-05T07:49:54.463Z,101574.00
2022-12-05T07:52:57.090Z,101564.59
2022-12-05T07:56:01.951Z,101570.63
2022-12-05T07:59:04.632Z,101573.22
2022-12-05T08:02:07.423Z,101573.19
2022-12-05T08:05:10.425Z,101567.00
2022-12-05T08:08:13.272Z,101568.03
2022-12-05T08:11:19.332Z,101572.31
2022-12-05T08:14:22.040Z,101572.44
2022-12-05T08:17:24.661Z,101584.66
2022-12-05T08:20:27.334Z,101574.38
2022-12-05T08:23:31.171Z,101578.59
2022-12-05T08:26:37.305Z,101580.25
2022-12-05T08:29:39.930Z,101584.59
2022-12-05T08:32:42.587Z,101579.31
2022-12-05T08:35:45.298Z,101589.88
2022-12-05T08:38:48.314Z,101592.53
2022-12-05T08:41:52.288Z,101594.19
2022-12-05T08:44:54.973Z,101602.25
2022-12-05T08:47:57.774Z,101604.81
2022-12-05T08:51:05.247Z,101608.31
2022-12-05T08:54:07.986Z,101617.97
2022-12-05T08:57:11.940Z,101623.19
2022-12-05T09:00:15.798Z,101610.09
2022-12-05T09:03:18.409Z,101618.88
2022-12-05T09:06:23.263Z,101617.09
2022-12-05T09:09:25.900Z,101608.28
2022-12-05T09:12:29.902Z,101611.78
2022-12-05T09:15:32.620Z,101608.28
2022-12-05T09:18:35.495Z,101616.25
2022-12-05T09:21:38.106Z,101620.63
2022-12-05T09:24:40.697Z,101613.56
2022-12-05T09:27:44.715Z,101606.66
2022-12-05T09:30:57.122Z,101604.78
2022-12-05T09:33:59.778Z,101606.66
2022-12-05T09:37:23.269Z,101604.81
2022-12-05T09:40:25.313Z,101606.56
2022-12-05T09:43:39.172Z,101602.16
2022-12-05T09:46:53.209Z,101600.53
2022-12-05T09:50:01.340Z,101600.47
2022-12-05T09:53:10.685Z,101597.88
2022-12-05T09:56:22.477Z,101596.16
2022-12-05T09:59:26.516Z,101592.69
2022-12-05T10:02:42.724Z,101588.25
2022-12-05T10:05:53.314Z,101584.06
2022-12-05T10:09:21.782Z,101586.63
2022-12-05T10:12:43.030Z,101594.69
2022-12-05T10:15:55.681Z,101596.34
2022-12-05T10:19:04.030Z,101589.25
2022-12-05T10:22:20.207Z,101587.66
2022-12-05T10:25:26.694Z,101585.84
2022-12-05T10:28:34.766Z,101577.16
2022-12-05T10:31:40.429Z,101575.34
2022-12-05T10:34:45.337Z,101574.56
2022-12-05T10:37:50.767Z,101564.91
2022-12-05T10:40:58.103Z,101570.13
2022-12-05T10:44:01.001Z,101560.47
2022-12-05T10:47:05.010Z,101563.03
2022-12-05T10:50:21.511Z,101564.72
2022-12-05T10:53:27.925Z,101568.31
2022-12-05T10:56:42.374Z,101573.72
2022-12-05T10:59:47.676Z,101575.41
2022-12-05T11:02:53.092Z,101559.59
2022-12-05T11:05:58.402Z,101569.19
2022-12-05T11:09:07.157Z,101558.63
2022-12-05T11:12:19.364Z,101568.41
2022-12-05T11:15:25.369Z,101564.09
2022-12-05T11:18:32.672Z,101555.22
2022-12-05T11:21:43.297Z,101552.53
2022-12-05T11:24:45.926Z,101549.03
2022-12-05T11:27:48.568Z,101554.25
2022-12-05T11:30:59.424Z,101552.53
2022-12-05T11:34:11.286Z,101550.69
2022-12-05T11:37:18.482Z,101549.00
2022-12-05T11:40:32.707Z,101543.75
2022-12-05T11:43:53.743Z,101544.78
2022-12-05T11:47:11.444Z,101536.84
2022-12-05T11:50:25.827Z,101541.19
2022-12-05T11:54:01.389Z,101534.94
2022-12-05T11:57:12.208Z,101537.53
2022-12-05T12:00:22.185Z,101526.06
2022-12-05T12:03:54.750Z,101525.19
2022-12-05T12:07:11.270Z,101526.88
2022-12-05T12:10:25.728Z,101528.59
2022-12-05T12:13:46.260Z,101534.75
2022-12-05T12:16:58.934Z,101519.84
2022-12-05T12:20:29.223Z,101523.38
2022-12-05T12:23:44.581Z,101527.69
2022-12-05T12:26:55.979Z,101528.88
2022-12-05T12:30:06.455Z,101519.94
2022-12-05T12:33:16.303Z,101522.50
2022-12-05T12:36:25.874Z,101518.09
2022-12-05T12:39:41.764Z,101521.53
2022-12-05T12:42:56.531Z,101517.22
2022-12-05T12:46:13.635Z,101514.59
2022-12-05T12:49:35.815Z,101511.97
2022-12-05T12:53:00.700Z,101513.16
2022-12-05T12:56:16.003Z,101513.03
2022-12-05T12:59:34.017Z,101513.94
2022-12-05T13:02:43.301Z,101514.81
2022-12-05T13:05:50.006Z,101505.16
2022-12-05T13:08:57.433Z,101502.47
2022-12-05T13:12:10.608Z,101501.66
2022-12-05T13:15:16.225Z,101502.59
2022-12-05T13:18:21.885Z,101500.81
2022-12-05T13:21:25.801Z,101500.81
2022-12-05T13:24:29.705Z,101504.31
2022-12-05T13:27:33.763Z,101501.63
2022-12-05T13:30:56.687Z,101497.25
2022-12-05T13:33:59.309Z,101503.41
2022-12-05T13:37:29.155Z,101507.78
2022-12-05T13:40:52.169Z,101498.16
2022-12-05T13:44:05.980Z,101508.69
2022-12-05T13:47:25.767Z,101501.69
2022-12-05T13:50:37.002Z,101501.69
2022-12-05T13:53:43.232Z,101506.06
2022-12-05T13:56:52.328Z,101508.69
2022-12-05T14:00:06.121Z,101511.34
2022-12-05T14:03:19.560Z,101514.81
2022-12-05T14:06:58.568Z,101515.81
2022-12-05T14:10:01.357Z,101512.25
2022-12-05T14:13:25.261Z,101510.50
2022-12-05T14:16:50.733Z,101510.50
2022-12-05T14:20:07.260Z,101500.88
2022-12-05T14:23:24.878Z,101507.09
2022-12-05T14:26:49.337Z,101498.31
2022-12-05T14:30:03.620Z,101504.47
2022-12-05T14:33:15.436Z,101508.84
2022-12-05T14:36:29.087Z,101515.81
2022-12-05T14:39:39.887Z,101512.31
2022-12-05T14:42:45.022Z,101507.97
2022-12-05T14:46:00.068Z,101510.63
2022-12-05T14:49:52.751Z,101506.28
2022-12-05T14:53:20.199Z,101512.41
2022-12-05T14:56:26.212Z,101511.50
2022-12-05T14:59:32.302Z,101502.75
2022-12-05T15:02:40.440Z,101504.56
2022-12-05T15:05:45.146Z,101508.06
2022-12-05T15:08:51.118Z,101501.06
2022-12-05T15:11:54.248Z,101510.72
2022-12-05T15:15:14.473Z,101508.09
2022-12-05T15:18:23.446Z,101502.84
2022-12-05T15:21:33.587Z,101510.78
2022-12-05T15:24:38.811Z,101510.72
2022-12-05T15:27:41.547Z,101515.97
2022-12-05T15:30:44.589Z,101513.34
2022-12-05T15:33:52.965Z,101508.09
2022-12-05T15:37:03.762Z,101517.81
2022-12-05T15:40:14.176Z,101516.06
2022-12-05T15:43:30.823Z,101528.34
2022-12-05T15:46:33.443Z,101523.06
2022-12-05T15:49:36.186Z,101522.22
2022-12-05T15:52:46.488Z,101514.31
2022-12-05T15:55:52.702Z,101516.09
2022-12-05T15:58:59.790Z,101512.59
2022-12-05T16:02:12.111Z,101510.88
2022-12-05T16:05:23.311Z,101510.03
2022-12-05T16:08:31.178Z,101507.38
2022-12-05T16:11:33.884Z,101508.28
2022-12-05T16:18:05.940Z,101507.41
2022-12-05T16:21:36.006Z,101508.28
2022-12-05T16:24:43.422Z,101505.66
2022-12-05T16:27:58.206Z,101496.94
2022-12-05T16:31:03.202Z,101500.47
2022-12-05T16:34:08.089Z,101503.97
2022-12-05T16:37:19.724Z,101510.97
2022-12-05T16:40:24.041Z,101509.22
2022-12-05T16:43:44.332Z,101508.31
2022-12-05T16:46:47.524Z,101505.72
2022-12-05T16:49:50.237Z,101501.34
2022-12-05T16:53:02.046Z,101506.59
2022-12-05T16:56:07.953Z,101516.19
2022-12-05T16:59:19.836Z,101506.59
2022-12-05T17:02:22.515Z,101506.59
2022-12-05T17:05:25.592Z,101502.25
2022-12-05T17:08:28.279Z,101520.59
2022-12-05T17:11:34.002Z,101509.28
2022-12-05T17:14:36.698Z,101494.38
2022-12-05T17:17:39.493Z,101511.91
2022-12-05T17:20:44.274Z,101509.25
2022-12-05T17:23:49.227Z,101509.25
2022-12-05T17:26:53.222Z,101509.25
2022-12-05T17:29:56.187Z,101507.50
2022-12-05T17:32:59.034Z,101507.50
2022-12-05T17:36:01.818Z,101509.25
2022-12-05T17:39:04.528Z,101507.53
2022-12-05T17:42:09.373Z,101504.03
2022-12-05T17:45:14.659Z,101500.53
2022-12-05T17:48:17.326Z,101506.63
2022-12-05T17:51:20.485Z,101502.28
2022-12-05T17:54:23.105Z,101506.66
2022-12-05T17:57:27.080Z,101502.28
2022-12-05T18:00:29.769Z,101508.41
2022-12-05T18:03:32.527Z,101511.91
2022-12-05T18:06:35.225Z,101513.66
2022-12-05T18:09:37.835Z,101517.19
2022-12-05T18:12:42.104Z,101517.16
2022-12-05T18:15:47.375Z,101518.91
2022-12-05T18:18:50.013Z,101518.91
2022-12-05T18:21:52.626Z,101512.78
2022-12-05T18:24:57.315Z,101523.28
2022-12-05T18:28:01.776Z,101516.31
2022-12-05T18:31:07.083Z,101519.78
2022-12-05T18:34:10.085Z,101524.16
2022-12-05T18:37:13.166Z,101516.28
2022-12-05T18:40:15.953Z,101519.78
2022-12-05T18:43:19.919Z,101517.16
2022-12-05T18:46:22.959Z,101519.78
2022-12-05T18:49:25.840Z,101522.41
2022-12-05T18:52:28.456Z,101517.16
2022-12-05T18:55:57.990Z,101525.03
2022-12-05T18:58:57.284Z,101524.16
2022-12-05T19:02:00.446Z,101520.66
2022-12-05T19:05:03.149Z,101525.03
2022-12-05T19:08:06.174Z,101521.53
2022-12-05T19:11:08.893Z,101521.53
2022-12-05T19:14:13.250Z,101515.41
2022-12-05T19:17:16.103Z,101524.16
2022-12-05T19:20:18.839Z,101523.28
2022-12-05T19:23:21.530Z,101521.53
2022-12-05T19:26:25.081Z,101519.78
2022-12-05T19:29:29.037Z,101523.31
2022-12-05T19:32:34.302Z,101523.28
2022-12-05T19:35:41.053Z,101525.03
2022-12-05T19:38:45.908Z,101526.75
2022-12-05T19:41:49.374Z,101521.53
2022-12-05T19:44:53.373Z,101514.53
2022-12-05T19:47:56.014Z,101523.31
2022-12-05T19:50:59.849Z,101520.66
2022-12-05T19:54:05.092Z,101521.53
2022-12-05T19:57:07.864Z,101528.53
2022-12-05T20:00:12.938Z,101525.03
2022-12-05T20:03:15.674Z,101522.38
2022-12-05T20:06:19.511Z,101530.28
2022-12-05T20:09:23.289Z,101523.28
2022-12-05T20:12:25.966Z,101518.91
2022-12-05T20:15:30.299Z,101525.03
2022-12-05T20:18:33.964Z,101527.66
2022-12-05T20:21:39.379Z,101526.75
2022-12-05T20:24:42.069Z,101523.28
2022-12-05T20:27:45.624Z,101523.28
2022-12-05T20:30:49.885Z,101519.78
2022-12-05T20:33:53.802Z,101520.66
2022-12-05T20:36:56.404Z,101509.28
2022-12-05T20:39:59.362Z,101510.16
2022-12-05T20:43:02.262Z,101505.81
2022-12-05T20:46:08.896Z,101504.91
2022-12-05T20:49:12.960Z,101499.69
2022-12-05T20:52:15.620Z,101498.78
2022-12-05T20:55:18.605Z,101506.69
2022-12-05T20:58:21.642Z,101507.53
2022-12-05T21:01:27.247Z,101505.81
2022-12-05T21:04:29.881Z,101500.56
2022-12-05T21:07:32.502Z,101506.69
2022-12-05T21:10:35.399Z,101502.31
2022-12-05T21:13:38.221Z,101500.56
2022-12-05T21:16:42.225Z,101493.56
2022-12-05T21:19:45.451Z,101493.56
2022-12-05T21:22:48.064Z,101479.59
2022-12-05T21:25:50.696Z,101475.19
2022-12-05T21:28:54.118Z,101476.06
2022-12-05T21:31:59.491Z,101474.34
2022-12-05T21:35:03.316Z,101471.69
2022-12-05T21:38:05.919Z,101470.81
2022-12-05T21:41:08.750Z,101469.94
2022-12-05T21:44:11.390Z,101477.81
2022-12-05T21:47:15.589Z,101469.94
2022-12-05T21:50:18.439Z,101469.97
2022-12-05T21:53:21.966Z,101468.22
2022-12-05T21:56:25.409Z,101467.34
2022-12-05T21:59:32.185Z,101462.09
2022-12-05T22:02:36.195Z,101462.09
2022-12-05T22:05:38.818Z,101464.72
2022-12-05T22:08:41.659Z,101461.19
2022-12-05T22:11:44.406Z,101463.84
2022-12-05T22:14:47.046Z,101459.47
2022-12-05T22:17:51.053Z,101464.69
2022-12-05T22:20:56.741Z,101461.22
2022-12-05T22:23:59.371Z,101459.47
2022-12-05T22:27:01.966Z,101455.06
2022-12-05T22:30:05.324Z,101459.44
2022-12-05T22:33:09.381Z,101455.97
2022-12-05T22:36:13.945Z,101457.72
2022-12-05T22:39:16.561Z,101455.97
2022-12-05T22:42:19.165Z,101448.09
2022-12-05T22:45:21.805Z,101451.59
2022-12-05T22:48:27.361Z,101447.22
2022-12-05T22:51:29.948Z,101440.25
2022-12-05T22:54:32.674Z,101435.88
2022-12-05T22:57:35.265Z,101429.72
2022-12-05T23:00:38.461Z,101440.22
2022-12-05T23:03:43.622Z,101434.97
2022-12-05T23:06:46.360Z,101436.72
2022-12-05T23:09:49.103Z,101428.84
2022-12-05T23:12:51.831Z,101434.09
2022-12-05T23:15:57.836Z,101432.34
2022-12-05T23:19:04.493Z,101420.16
2022-12-05T23:22:07.127Z,101422.72
2022-12-05T23:25:09.950Z,101415.75
2022-12-05T23:28:12.596Z,101413.13
2022-12-05T23:31:15.631Z,101413.13
2022-12-05T23:34:19.909Z,101408.78
2022-12-05T23:37:22.524Z,101412.25
2022-12-05T23:40:25.307Z,101419.25
2022-12-05T23:43:28.398Z,101408.78
2022-12-05T23:46:31.203Z,101404.38
2022-12-05T23:49:35.179Z,101393.91
2022-12-05T23:52:38.388Z,101398.25
2022-12-05T23:55:41.004Z,101400.00
2022-12-05T23:58:44.363Z,101392.16
